Time;durP1;ratioP1;P1;durP2;ratioP2;P2;SDS_P1;SDS_P2;PMS_P1;PMS_P2;Temp;Humidity;BMP_temperature;BMP_pressure;BME280_temperature;BME280_humidity;BME280_pressure;Samples;Min_cycle;Max_cycle;Signal;HPM_P1;HPM_P2
2023/07/07 04:19:56;;;;;;;7.43;4.20;;;24.70;92.60;;;;;;6125261;28;83201;-96
2023/07/07 04:32:50;;;;;;;5.97;4.03;;;24.60;92.60;;;;;;6147323;28;85156;-96
2023/07/07 04:47:11;;;;;;;5.15;4.13;;;24.70;92.60;;;;;;6217997;28;83228;-96
2023/07/07 17:59:40;;;;;;;7.22;4.90;;;25.10;92.00;;;;;;6226409;22;82950;-69
2023/07/07 18:02:42;;;;;;;7.38;4.78;;;25.10;92.00;;;;;;6293891;27;85283;-69
2023/07/07 18:05:44;;;;;;;6.28;4.93;;;25.10;92.00;;;;;;6296157;27;85285;-69
2023/07/07 18:08:46;;;;;;;6.18;4.82;;;25.00;92.00;;;;;;6290802;27;84345;-69
2023/07/07 18:11:48;;;;;;;5.82;4.50;;;25.10;92.00;;;;;;6309607;27;82898;-69
2023/07/07 18:14:51;;;;;;;6.00;4.80;;;25.10;92.00;;;;;;6294573;27;84087;-69
2023/07/07 18:17:53;;;;;;;6.13;4.60;;;25.10;92.00;;;;;;6297156;27;84212;-69
2023/07/07 18:20:55;;;;;;;6.25;4.72;;;25.10;92.00;;;;;;6297674;27;82869;-70
2023/07/07 18:23:57;;;;;;;6.43;4.70;;;25.00;92.00;;;;;;6287598;27;82158;-69
2023/07/07 18:26:59;;;;;;;6.72;5.00;;;25.10;92.00;;;;;;6287366;27;82896;-70
2023/07/07 18:30:06;;;;;;;5.20;4.30;;;25.10;92.00;;;;;;6294980;27;83868;-69
2023/07/07 18:33:10;;;;;;;5.30;4.38;;;25.00;92.00;;;;;;6289431;27;85013;-70
2023/07/07 18:36:12;;;;;;;6.30;4.90;;;25.00;92.00;;;;;;6297009;27;84085;-70
2023/07/07 18:39:21;;;;;;;5.65;4.78;;;25.00;92.00;;;;;;6295066;27;84297;-70
2023/07/07 18:42:23;;;;;;;6.03;4.90;;;25.00;92.00;;;;;;6289002;27;84032;-70
2023/07/07 18:45:27;;;;;;;5.07;4.57;;;25.10;92.00;;;;;;6296511;27;84009;-71
2023/07/07 18:48:29;;;;;;;5.68;4.50;;;25.10;92.00;;;;;;6293050;27;84177;-71
2023/07/07 18:51:31;;;;;;;5.55;4.70;;;25.10;91.90;;;;;;6292927;27;89105;-71
2023/07/07 18:54:33;;;;;;;6.05;4.70;;;25.10;91.90;;;;;;6301878;27;87288;-71
2023/07/07 18:57:35;;;;;;;6.85;4.50;;;25.00;91.80;;;;;;6286342;27;88764;-71
2023/07/07 19:00:41;;;;;;;7.20;5.20;;;25.10;91.80;;;;;;6286559;27;89000;-71
2023/07/07 19:03:43;;;;;;;7.30;4.53;;;25.00;91.70;;;;;;6301703;27;90162;-71
2023/07/07 19:06:45;;;;;;;6.22;4.60;;;25.00;91.70;;;;;;6302615;27;88315;-70
2023/07/07 19:09:49;;;;;;;5.85;4.63;;;25.10;91.60;;;;;;6294221;27;89486;-70
2023/07/07 19:12:51;;;;;;;5.55;4.57;;;25.10;91.60;;;;;;6301653;27;88954;-70
2023/07/07 19:15:55;;;;;;;5.80;4.82;;;25.00;91.60;;;;;;6285432;27;89172;-70
2023/07/07 19:18:59;;;;;;;5.93;4.53;;;25.00;91.50;;;;;;6280790;27;89326;-70
2023/07/07 19:22:01;;;;;;;5.15;4.20;;;25.10;91.50;;;;;;6282001;27;89224;-71
2023/07/07 19:25:03;;;;;;;5.85;4.38;;;25.10;91.40;;;;;;6287473;27;88357;-71
2023/07/07 19:28:09;;;;;;;5.43;4.47;;;25.00;91.40;;;;;;6299402;27;87713;-71
2023/07/07 19:31:13;;;;;;;5.60;4.47;;;25.00;91.40;;;;;;6297628;27;89059;-71
2023/07/07 19:34:15;;;;;;;6.40;4.30;;;25.00;91.40;;;;;;6301219;27;90187;-71
2023/07/07 19:37:17;;;;;;;6.90;4.97;;;25.00;91.40;;;;;;6305015;27;89084;-70
2023/07/07 19:40:28;;;;;;;6.10;4.60;;;25.00;91.30;;;;;;6291895;27;89083;-71
2023/07/07 19:43:30;;;;;;;5.65;4.65;;;25.00;91.20;;;;;;6288279;27;89313;-71
2023/07/07 19:46:35;;;;;;;6.05;4.65;;;25.10;91.20;;;;;;6292776;27;89182;-71
2023/07/07 19:49:38;;;;;;;6.93;4.30;;;25.10;91.10;;;;;;6294275;27;88305;-71
2023/07/07 19:52:42;;;;;;;6.68;4.70;;;25.00;91.00;;;;;;6284136;27;88248;-70
2023/07/07 19:55:46;;;;;;;5.35;4.53;;;25.10;91.00;;;;;;6296500;27;87276;-71
2023/07/07 19:58:51;;;;;;;5.13;4.63;;;25.10;91.00;;;;;;6289462;27;88017;-71
2023/07/07 20:01:55;;;;;;;5.47;4.40;;;25.00;90.90;;;;;;6293595;27;87054;-70
2023/07/07 20:04:59;;;;;;;5.90;4.45;;;25.10;90.90;;;;;;6289616;27;90189;-71
2023/07/07 20:08:02;;;;;;;5.70;4.18;;;25.00;90.80;;;;;;6293861;27;87052;-71
2023/07/07 20:11:17;;;;;;;5.68;4.25;;;25.00;90.70;;;;;;6282554;27;89274;-71
2023/07/07 20:14:20;;;;;;;5.45;4.47;;;25.00;90.80;;;;;;6297447;27;88293;-71
2023/07/07 20:17:24;;;;;;;5.75;4.45;;;25.00;90.80;;;;;;6302442;27;89148;-71
2023/07/07 20:20:27;;;;;;;5.53;4.30;;;25.00;90.80;;;;;;6281159;27;88093;-71
2023/07/07 20:23:30;;;;;;;5.22;4.22;;;25.00;90.90;;;;;;6292258;27;89235;-71
2023/07/07 20:26:33;;;;;;;6.45;4.70;;;25.00;90.80;;;;;;6282717;27;88499;-71
2023/07/07 20:29:36;;;;;;;5.70;4.38;;;25.00;90.80;;;;;;6281145;27;87842;-70
2023/07/07 20:32:40;;;;;;;6.15;4.55;;;25.00;90.70;;;;;;6283451;27;87080;-71
2023/07/07 20:35:43;;;;;;;5.45;4.55;;;25.00;90.60;;;;;;6296404;27;89735;-71
2023/07/07 20:38:47;;;;;;;5.28;4.20;;;25.00;90.50;;;;;;6302986;27;89586;-70
2023/07/07 20:41:51;;;;;;;6.95;4.60;;;25.00;90.50;;;;;;6292236;27;87689;-70
2023/07/07 20:44:54;;;;;;;4.57;3.70;;;25.00;90.40;;;;;;6280420;27;88297;-71
2023/07/07 20:47:57;;;;;;;4.10;3.63;;;25.00;90.40;;;;;;6279107;27;87091;-71
2023/07/07 20:51:00;;;;;;;4.53;3.50;;;25.00;90.40;;;;;;6282135;27;89378;-71
2023/07/07 20:54:02;;;;;;;4.63;3.97;;;25.00;90.40;;;;;;6297246;27;89189;-70
2023/07/07 20:57:04;;;;;;;4.65;3.88;;;25.00;90.40;;;;;;6284133;27;88386;-72
2023/07/07 21:00:16;;;;;;;4.68;4.15;;;25.00;90.30;;;;;;6284872;27;89235;-72
2023/07/07 21:03:19;;;;;;;4.93;4.38;;;25.00;90.40;;;;;;6302145;27;89037;-73
2023/07/07 21:06:23;;;;;;;5.82;4.70;;;25.00;90.50;;;;;;6290317;27;90005;-72
2023/07/07 21:09:25;;;;;;;4.82;4.30;;;25.00;90.50;;;;;;6287600;27;87910;-72
2023/07/07 21:12:27;;;;;;;4.97;4.07;;;25.00;90.50;;;;;;6284388;27;89163;-72
2023/07/07 21:15:29;;;;;;;6.22;4.10;;;25.00;90.50;;;;;;6295672;27;89057;-72
2023/07/07 21:18:32;;;;;;;5.57;4.40;;;25.00;90.40;;;;;;6285167;27;89150;-72
2023/07/07 21:21:34;;;;;;;5.05;4.10;;;25.00;90.40;;;;;;6298667;27;89139;-73
2023/07/07 21:24:36;;;;;;;4.22;3.80;;;25.00;90.30;;;;;;6301497;27;89049;-72
2023/07/07 21:27:39;;;;;;;4.90;3.45;;;25.00;90.20;;;;;;6301024;27;88315;-72
2023/07/07 21:30:42;;;;;;;3.95;3.55;;;25.00;90.20;;;;;;6300663;27;88260;-72
2023/07/07 21:33:45;;;;;;;3.90;3.50;;;25.00;90.20;;;;;;6297437;27;90378;-72
2023/07/07 21:36:47;;;;;;;3.72;3.35;;;25.00;90.20;;;;;;6295437;27;90076;-72
2023/07/07 21:39:49;;;;;;;4.07;3.47;;;25.00;90.20;;;;;;6282338;27;89367;-72
2023/07/07 21:42:51;;;;;;;4.70;3.88;;;25.00;90.20;;;;;;6289161;27;87909;-72
2023/07/07 21:45:53;;;;;;;4.35;3.95;;;25.00;90.20;;;;;;6293819;27;89483;-72
2023/07/07 21:48:56;;;;;;;4.93;4.07;;;25.00;90.20;;;;;;6292002;27;88946;-72
2023/07/07 21:52:01;;;;;;;4.22;3.83;;;25.00;90.30;;;;;;6301527;27;89424;-72
2023/07/07 21:55:03;;;;;;;4.47;3.97;;;25.00;90.30;;;;;;6293011;27;89031;-72
2023/07/07 21:58:05;;;;;;;4.88;4.38;;;25.00;90.40;;;;;;6287627;27;88474;-72
2023/07/07 22:01:10;;;;;;;5.05;4.10;;;25.00;90.30;;;;;;6291821;27;88268;-72
2023/07/07 22:04:14;;;;;;;5.28;4.28;;;25.00;90.30;;;;;;6292663;27;89046;-72
2023/07/07 22:07:17;;;;;;;4.25;3.85;;;25.00;90.20;;;;;;6284991;27;90000;-71
2023/07/07 22:10:32;;;;;;;4.30;3.63;;;25.00;90.20;;;;;;6289403;27;89289;-72
2023/07/07 22:13:34;;;;;;;3.90;3.50;;;25.00;90.20;;;;;;6296531;27;88114;-72
2023/07/07 22:16:36;;;;;;;4.55;3.83;;;25.00;90.20;;;;;;6289238;27;89412;-71
2023/07/07 22:19:39;;;;;;;4.18;3.78;;;25.00;90.20;;;;;;6295623;27;90765;-72
2023/07/07 22:22:41;;;;;;;4.13;3.70;;;25.00;90.20;;;;;;6283486;27;89411;-72
2023/07/07 22:25:43;;;;;;;4.45;3.55;;;25.00;90.20;;;;;;6291982;27;88032;-72
2023/07/07 22:28:46;;;;;;;4.18;3.70;;;25.00;90.20;;;;;;6286420;27;88435;-72
2023/07/07 22:31:48;;;;;;;4.63;3.90;;;25.00;90.20;;;;;;6295333;27;89017;-71
2023/07/07 22:34:51;;;;;;;4.10;3.70;;;25.00;90.20;;;;;;6283652;27;89131;-72
2023/07/07 22:37:53;;;;;;;4.22;3.83;;;24.90;90.30;;;;;;6290903;27;90048;-71
2023/07/07 22:40:57;;;;;;;5.43;4.55;;;25.00;90.40;;;;;;6288468;27;89059;-72
2023/07/07 22:43:59;;;;;;;4.95;4.45;;;25.00;90.40;;;;;;6286479;27;88786;-71
2023/07/07 22:47:01;;;;;;;5.20;4.00;;;25.00;90.40;;;;;;6301389;27;89085;-72
2023/07/07 22:50:14;;;;;;;4.47;4.03;;;25.00;90.30;;;;;;6288298;27;89057;-72
2023/07/07 22:53:16;;;;;;;3.95;3.38;;;25.00;90.20;;;;;;6290981;27;87803;-72
2023/07/07 22:56:24;;;;;;;3.67;3.38;;;25.00;90.20;;;;;;6298200;27;89031;-72
2023/07/07 22:59:26;;;;;;;3.85;3.42;;;25.00;90.20;;;;;;6286896;27;88596;-72
2023/07/07 23:02:29;;;;;;;4.20;3.80;;;25.00;90.20;;;;;;6288922;27;88124;-72
2023/07/07 23:05:34;;;;;;;4.30;3.90;;;25.00;90.20;;;;;;6291916;27;89239;-72
2023/07/07 23:08:36;;;;;;;3.90;3.50;;;25.00;90.10;;;;;;6284593;27;90056;-71
2023/07/07 23:11:38;;;;;;;3.90;3.55;;;25.00;90.20;;;;;;6281286;27;89049;-72
2023/07/07 23:14:40;;;;;;;4.30;3.90;;;25.00;90.10;;;;;;6285083;27;89074;-72
2023/07/07 23:17:43;;;;;;;4.60;4.20;;;25.00;90.10;;;;;;6285364;27;89017;-72
2023/07/07 23:20:46;;;;;;;4.60;4.07;;;25.00;90.10;;;;;;6281111;27;89097;-72
2023/07/07 23:23:50;;;;;;;4.22;3.83;;;25.00;90.20;;;;;;6301532;27;89134;-72
2023/07/07 23:26:52;;;;;;;5.00;4.45;;;25.00;90.30;;;;;;6292585;27;89111;-72
2023/07/07 23:30:01;;;;;;;4.75;4.25;;;25.00;90.30;;;;;;6296251;27;88335;-71
2023/07/07 23:33:04;;;;;;;4.97;4.57;;;24.90;90.30;;;;;;6286971;27;89143;-72
2023/07/07 23:36:16;;;;;;;4.28;3.65;;;25.00;90.30;;;;;;6287724;27;88012;-72
2023/07/07 23:39:18;;;;;;;3.92;3.53;;;25.00;90.20;;;;;;6286360;27;90011;-72
2023/07/07 23:42:20;;;;;;;4.65;4.25;;;25.00;90.20;;;;;;6296723;27;89125;-71
2023/07/07 23:45:23;;;;;;;3.80;3.50;;;25.00;90.10;;;;;;6292551;27;89052;-72
2023/07/07 23:48:26;;;;;;;4.43;4.03;;;25.00;90.10;;;;;;6292953;27;89447;-72
2023/07/07 23:51:29;;;;;;;4.70;4.30;;;25.00;90.10;;;;;;6291736;27;90310;-72
2023/07/07 23:54:31;;;;;;;4.28;3.88;;;25.00;90.10;;;;;;6294507;27;89065;-72
2023/07/07 23:57:33;;;;;;;4.68;4.28;;;25.00;90.10;;;;;;6294467;27;89416;-72
